sensor_id;sensor_type;location;lat;lon;timestamp;P1;durP1;ratioP1;P2;durP2;ratioP2
46339;SDS011;47273;49.274;8.708;2023-02-11T05:02:24;32.67;;;13.65;;
46339;SDS011;47273;49.274;8.708;2023-02-11T05:04:50;40.78;;;15.05;;
46339;SDS011;47273;49.274;8.708;2023-02-11T05:07:16;46.03;;;15.80;;
46339;SDS011;47273;49.274;8.708;2023-02-11T05:09:41;44.95;;;15.02;;
46339;SDS011;47273;49.274;8.708;2023-02-11T05:12:07;35.90;;;14.52;;
46339;SDS011;47273;49.274;8.708;2023-02-11T05:14:32;46.03;;;16.08;;
46339;SDS011;47273;49.274;8.708;2023-02-11T05:16:58;39.33;;;16.40;;
46339;SDS011;47273;49.274;8.708;2023-02-11T05:19:24;40.85;;;16.13;;
46339;SDS011;47273;49.274;8.708;2023-02-11T05:21:49;38.20;;;14.70;;
46339;SDS011;47273;49.274;8.708;2023-02-11T05:24:15;45.78;;;14.82;;
46339;SDS011;47273;49.274;8.708;2023-02-11T05:26:41;36.20;;;13.50;;
46339;SDS011;47273;49.274;8.708;2023-02-11T05:29:06;37.40;;;15.32;;
46339;SDS011;47273;49.274;8.708;2023-02-11T05:31:32;30.58;;;13.48;;
46339;SDS011;47273;49.274;8.708;2023-02-11T05:33:57;35.33;;;14.60;;
46339;SDS011;47273;49.274;8.708;2023-02-11T05:36:23;33.78;;;14.18;;
46339;SDS011;47273;49.274;8.708;2023-02-11T05:38:49;36.92;;;15.27;;
46339;SDS011;47273;49.274;8.708;2023-02-11T05:41:15;31.33;;;12.65;;
46339;SDS011;47273;49.274;8.708;2023-02-11T05:43:40;33.65;;;13.32;;
46339;SDS011;47273;49.274;8.708;2023-02-11T05:46:06;40.40;;;15.40;;
46339;SDS011;47273;49.274;8.708;2023-02-11T05:48:32;29.20;;;13.48;;
46339;SDS011;47273;49.274;8.708;2023-02-11T05:50:58;36.70;;;13.85;;
46339;SDS011;47273;49.274;8.708;2023-02-11T05:53:23;36.45;;;13.32;;
46339;SDS011;47273;49.274;8.708;2023-02-11T05:55:49;31.02;;;11.98;;
46339;SDS011;47273;49.274;8.708;2023-02-11T05:58:15;39.83;;;13.98;;
46339;SDS011;47273;49.274;8.708;2023-02-11T06:00:40;31.55;;;13.50;;
46339;SDS011;47273;49.274;8.708;2023-02-11T06:03:06;36.20;;;12.80;;
46339;SDS011;47273;49.274;8.708;2023-02-11T06:05:32;42.28;;;15.35;;
46339;SDS011;47273;49.274;8.708;2023-02-11T06:07:58;35.20;;;13.30;;
46339;SDS011;47273;49.274;8.708;2023-02-11T06:10:24;33.10;;;13.07;;
46339;SDS011;47273;49.274;8.708;2023-02-11T06:12:50;36.35;;;15.00;;
46339;SDS011;47273;49.274;8.708;2023-02-11T06:15:16;29.65;;;13.02;;
46339;SDS011;47273;49.274;8.708;2023-02-11T06:17:41;33.50;;;13.93;;
46339;SDS011;47273;49.274;8.708;2023-02-11T06:20:07;36.58;;;14.55;;
46339;SDS011;47273;49.274;8.708;2023-02-11T06:22:34;29.98;;;13.00;;
46339;SDS011;47273;49.274;8.708;2023-02-11T06:25:00;34.78;;;14.27;;
46339;SDS011;47273;49.274;8.708;2023-02-11T06:27:26;37.17;;;14.80;;
46339;SDS011;47273;49.274;8.708;2023-02-11T06:29:52;38.67;;;12.98;;
46339;SDS011;47273;49.274;8.708;2023-02-11T06:32:17;36.15;;;15.23;;
46339;SDS011;47273;49.274;8.708;2023-02-11T06:34:44;34.70;;;14.73;;
46339;SDS011;47273;49.274;8.708;2023-02-11T06:37:10;43.22;;;14.82;;
46339;SDS011;47273;49.274;8.708;2023-02-11T06:39:35;34.28;;;15.05;;
46339;SDS011;47273;49.274;8.708;2023-02-11T06:42:01;41.60;;;15.75;;
46339;SDS011;47273;49.274;8.708;2023-02-11T06:44:27;38.20;;;15.43;;
46339;SDS011;47273;49.274;8.708;2023-02-11T06:46:53;30.88;;;12.57;;
46339;SDS011;47273;49.274;8.708;2023-02-11T06:49:18;32.80;;;14.57;;
46339;SDS011;47273;49.274;8.708;2023-02-11T06:51:44;39.55;;;14.25;;
46339;SDS011;47273;49.274;8.708;2023-02-11T06:54:10;34.33;;;13.07;;
46339;SDS011;47273;49.274;8.708;2023-02-11T06:56:38;31.33;;;13.07;;
46339;SDS011;47273;49.274;8.708;2023-02-11T06:59:04;34.70;;;13.70;;
46339;SDS011;47273;49.274;8.708;2023-02-11T07:01:30;33.08;;;13.55;;
46339;SDS011;47273;49.274;8.708;2023-02-11T07:03:56;35.83;;;15.20;;
46339;SDS011;47273;49.274;8.708;2023-02-11T07:06:24;39.33;;;15.95;;
46339;SDS011;47273;49.274;8.708;2023-02-11T07:08:54;39.05;;;14.57;;
46339;SDS011;47273;49.274;8.708;2023-02-11T07:11:21;35.53;;;13.95;;
46339;SDS011;47273;49.274;8.708;2023-02-11T07:13:52;35.70;;;14.90;;
46339;SDS011;47273;49.274;8.708;2023-02-11T07:16:20;40.47;;;15.45;;
46339;SDS011;47273;49.274;8.708;2023-02-11T07:18:46;41.05;;;14.90;;
46339;SDS011;47273;49.274;8.708;2023-02-11T07:21:13;35.08;;;14.48;;
46339;SDS011;47273;49.274;8.708;2023-02-11T07:23:41;42.10;;;14.18;;
46339;SDS011;47273;49.274;8.708;2023-02-11T07:26:08;40.03;;;15.05;;
46339;SDS011;47273;49.274;8.708;2023-02-11T07:28:36;32.38;;;14.02;;
46339;SDS011;47273;49.274;8.708;2023-02-11T07:31:12;31.67;;;14.15;;
46339;SDS011;47273;49.274;8.708;2023-02-11T07:33:38;37.45;;;14.18;;
46339;SDS011;47273;49.274;8.708;2023-02-11T07:36:05;37.90;;;13.05;;
46339;SDS011;47273;49.274;8.708;2023-02-11T07:38:32;39.95;;;14.65;;
46339;SDS011;47273;49.274;8.708;2023-02-11T07:40:59;35.67;;;14.45;;
46339;SDS011;47273;49.274;8.708;2023-02-11T07:43:26;26.08;;;11.85;;
46339;SDS011;47273;49.274;8.708;2023-02-11T07:45:52;37.30;;;15.73;;
46339;SDS011;47273;49.274;8.708;2023-02-11T07:48:17;36.63;;;13.90;;
46339;SDS011;47273;49.274;8.708;2023-02-11T07:50:43;39.90;;;14.63;;
46339;SDS011;47273;49.274;8.708;2023-02-11T07:53:08;36.38;;;15.63;;
46339;SDS011;47273;49.274;8.708;2023-02-11T07:55:34;40.42;;;15.95;;
46339;SDS011;47273;49.274;8.708;2023-02-11T07:58:00;49.42;;;16.38;;
46339;SDS011;47273;49.274;8.708;2023-02-11T08:00:25;33.90;;;14.65;;
46339;SDS011;47273;49.274;8.708;2023-02-11T08:02:51;40.92;;;15.20;;
46339;SDS011;47273;49.274;8.708;2023-02-11T08:05:17;50.33;;;16.50;;
46339;SDS011;47273;49.274;8.708;2023-02-11T08:07:42;39.13;;;14.70;;
46339;SDS011;47273;49.274;8.708;2023-02-11T08:10:08;42.35;;;16.38;;
46339;SDS011;47273;49.274;8.708;2023-02-11T08:12:34;44.33;;;17.42;;
46339;SDS011;47273;49.274;8.708;2023-02-11T08:15:00;44.90;;;17.73;;
46339;SDS011;47273;49.274;8.708;2023-02-11T08:17:25;45.40;;;17.38;;
46339;SDS011;47273;49.274;8.708;2023-02-11T08:19:51;38.95;;;15.23;;
46339;SDS011;47273;49.274;8.708;2023-02-11T08:22:17;41.80;;;15.15;;
46339;SDS011;47273;49.274;8.708;2023-02-11T08:24:42;44.88;;;18.33;;
46339;SDS011;47273;49.274;8.708;2023-02-11T08:27:08;43.15;;;17.02;;
46339;SDS011;47273;49.274;8.708;2023-02-11T08:29:33;48.45;;;18.42;;
46339;SDS011;47273;49.274;8.708;2023-02-11T08:31:59;41.08;;;16.85;;
46339;SDS011;47273;49.274;8.708;2023-02-11T08:34:25;46.15;;;16.70;;
46339;SDS011;47273;49.274;8.708;2023-02-11T08:36:50;37.03;;;16.27;;
46339;SDS011;47273;49.274;8.708;2023-02-11T08:39:17;37.58;;;15.27;;
46339;SDS011;47273;49.274;8.708;2023-02-11T08:41:50;43.47;;;17.13;;
46339;SDS011;47273;49.274;8.708;2023-02-11T08:44:17;42.53;;;16.38;;
46339;SDS011;47273;49.274;8.708;2023-02-11T08:46:46;42.47;;;15.57;;
46339;SDS011;47273;49.274;8.708;2023-02-11T08:49:13;47.53;;;16.92;;
46339;SDS011;47273;49.274;8.708;2023-02-11T08:51:39;40.33;;;17.88;;
46339;SDS011;47273;49.274;8.708;2023-02-11T08:54:05;47.40;;;19.30;;
46339;SDS011;47273;49.274;8.708;2023-02-11T08:56:33;36.38;;;16.65;;
46339;SDS011;47273;49.274;8.708;2023-02-11T08:59:00;45.25;;;16.58;;
46339;SDS011;47273;49.274;8.708;2023-02-11T09:01:27;38.13;;;16.52;;
46339;SDS011;47273;49.274;8.708;2023-02-11T09:03:55;42.83;;;17.25;;
46339;SDS011;47273;49.274;8.708;2023-02-11T09:06:22;44.92;;;16.80;;
46339;SDS011;47273;49.274;8.708;2023-02-11T09:08:50;54.38;;;19.00;;
46339;SDS011;47273;49.274;8.708;2023-02-11T09:11:18;46.97;;;17.92;;
46339;SDS011;47273;49.274;8.708;2023-02-11T09:13:46;52.40;;;17.10;;
46339;SDS011;47273;49.274;8.708;2023-02-11T09:16:22;47.47;;;18.23;;
46339;SDS011;47273;49.274;8.708;2023-02-11T09:18:55;49.22;;;19.40;;
46339;SDS011;47273;49.274;8.708;2023-02-11T09:21:22;51.35;;;18.98;;
46339;SDS011;47273;49.274;8.708;2023-02-11T09:23:48;39.10;;;17.05;;
46339;SDS011;47273;49.274;8.708;2023-02-11T09:26:16;46.20;;;19.25;;
46339;SDS011;47273;49.274;8.708;2023-02-11T09:28:43;48.10;;;17.33;;
46339;SDS011;47273;49.274;8.708;2023-02-11T09:31:11;46.60;;;19.23;;
46339;SDS011;47273;49.274;8.708;2023-02-11T09:33:42;46.78;;;18.63;;
46339;SDS011;47273;49.274;8.708;2023-02-11T09:36:13;44.22;;;18.73;;
46339;SDS011;47273;49.274;8.708;2023-02-11T09:38:42;46.42;;;16.70;;
46339;SDS011;47273;49.274;8.708;2023-02-11T09:43:46;41.63;;;17.73;;
46339;SDS011;47273;49.274;8.708;2023-02-11T09:46:15;37.75;;;16.58;;
46339;SDS011;47273;49.274;8.708;2023-02-11T09:48:43;35.80;;;15.80;;
46339;SDS011;47273;49.274;8.708;2023-02-11T09:51:23;40.97;;;16.73;;
46339;SDS011;47273;49.274;8.708;2023-02-11T09:54:44;38.80;;;16.70;;
46339;SDS011;47273;49.274;8.708;2023-02-11T09:57:01;40.58;;;17.23;;
46339;SDS011;47273;49.274;8.708;2023-02-11T09:59:27;38.00;;;14.82;;
46339;SDS011;47273;49.274;8.708;2023-02-11T10:02:04;35.92;;;16.88;;
46339;SDS011;47273;49.274;8.708;2023-02-11T10:10:16;34.22;;;16.38;;
46339;SDS011;47273;49.274;8.708;2023-02-11T10:12:51;44.67;;;15.52;;
46339;SDS011;47273;49.274;8.708;2023-02-11T10:15:58;41.90;;;16.50;;
46339;SDS011;47273;49.274;8.708;2023-02-11T10:18:56;35.72;;;14.30;;
46339;SDS011;47273;49.274;8.708;2023-02-11T10:24:23;34.67;;;13.90;;
46339;SDS011;47273;49.274;8.708;2023-02-11T10:26:50;32.08;;;15.15;;
46339;SDS011;47273;49.274;8.708;2023-02-11T10:29:30;42.08;;;16.70;;
46339;SDS011;47273;49.274;8.708;2023-02-11T10:32:03;37.97;;;14.95;;
46339;SDS011;47273;49.274;8.708;2023-02-11T10:34:37;35.38;;;13.98;;
46339;SDS011;47273;49.274;8.708;2023-02-11T10:37:07;38.53;;;15.85;;
46339;SDS011;47273;49.274;8.708;2023-02-11T10:39:37;40.05;;;16.30;;
46339;SDS011;47273;49.274;8.708;2023-02-11T10:42:04;34.63;;;14.25;;
46339;SDS011;47273;49.274;8.708;2023-02-11T10:47:03;29.25;;;13.70;;
46339;SDS011;47273;49.274;8.708;2023-02-11T10:49:39;33.45;;;14.50;;
46339;SDS011;47273;49.274;8.708;2023-02-11T10:54:54;33.85;;;14.90;;
46339;SDS011;47273;49.274;8.708;2023-02-11T10:57:25;33.53;;;14.10;;
46339;SDS011;47273;49.274;8.708;2023-02-11T10:59:58;31.33;;;15.10;;
46339;SDS011;47273;49.274;8.708;2023-02-11T11:02:29;42.22;;;15.60;;
46339;SDS011;47273;49.274;8.708;2023-02-11T11:05:05;43.58;;;15.45;;
46339;SDS011;47273;49.274;8.708;2023-02-11T11:07:54;36.03;;;14.90;;
46339;SDS011;47273;49.274;8.708;2023-02-11T11:10:28;35.67;;;15.55;;
46339;SDS011;47273;49.274;8.708;2023-02-11T11:13:16;32.90;;;15.75;;
46339;SDS011;47273;49.274;8.708;2023-02-11T11:16:05;34.92;;;14.88;;
46339;SDS011;47273;49.274;8.708;2023-02-11T11:18:37;35.67;;;15.43;;
46339;SDS011;47273;49.274;8.708;2023-02-11T11:21:25;34.88;;;15.77;;
46339;SDS011;47273;49.274;8.708;2023-02-11T11:23:59;31.48;;;14.85;;
46339;SDS011;47273;49.274;8.708;2023-02-11T11:26:27;32.70;;;15.18;;
46339;SDS011;47273;49.274;8.708;2023-02-11T11:29:08;34.13;;;15.18;;
46339;SDS011;47273;49.274;8.708;2023-02-11T11:31:50;36.08;;;15.13;;
46339;SDS011;47273;49.274;8.708;2023-02-11T11:34:33;32.67;;;14.38;;
46339;SDS011;47273;49.274;8.708;2023-02-11T11:37:09;30.80;;;15.32;;
46339;SDS011;47273;49.274;8.708;2023-02-11T11:39:55;31.48;;;15.10;;
46339;SDS011;47273;49.274;8.708;2023-02-11T11:45:00;34.28;;;13.45;;
46339;SDS011;47273;49.274;8.708;2023-02-11T11:50:08;32.70;;;14.70;;
46339;SDS011;47273;49.274;8.708;2023-02-11T11:53:04;32.30;;;14.45;;
46339;SDS011;47273;49.274;8.708;2023-02-11T11:55:44;28.77;;;13.10;;
46339;SDS011;47273;49.274;8.708;2023-02-11T11:58:13;28.98;;;14.35;;
46339;SDS011;47273;49.274;8.708;2023-02-11T12:05:48;30.42;;;14.35;;
46339;SDS011;47273;49.274;8.708;2023-02-11T12:08:25;28.48;;;13.43;;
46339;SDS011;47273;49.274;8.708;2023-02-11T12:11:25;32.08;;;14.70;;
46339;SDS011;47273;49.274;8.708;2023-02-11T12:16:50;31.35;;;13.77;;
46339;SDS011;47273;49.274;8.708;2023-02-11T12:34:38;26.42;;;13.27;;
46339;SDS011;47273;49.274;8.708;2023-02-11T12:37:03;29.90;;;13.98;;
46339;SDS011;47273;49.274;8.708;2023-02-11T12:39:50;32.15;;;13.35;;
46339;SDS011;47273;49.274;8.708;2023-02-11T12:42:26;26.10;;;13.57;;
46339;SDS011;47273;49.274;8.708;2023-02-11T12:48:18;24.40;;;13.23;;
46339;SDS011;47273;49.274;8.708;2023-02-11T12:54:10;28.17;;;14.02;;
46339;SDS011;47273;49.274;8.708;2023-02-11T12:57:02;27.08;;;13.73;;
46339;SDS011;47273;49.274;8.708;2023-02-11T12:59:33;26.55;;;13.80;;
46339;SDS011;47273;49.274;8.708;2023-02-11T13:02:14;25.58;;;13.10;;
46339;SDS011;47273;49.274;8.708;2023-02-11T13:05:03;28.80;;;12.82;;
46339;SDS011;47273;49.274;8.708;2023-02-11T13:07:49;26.67;;;13.10;;
46339;SDS011;47273;49.274;8.708;2023-02-11T13:10:22;25.23;;;13.88;;
46339;SDS011;47273;49.274;8.708;2023-02-11T13:13:21;26.92;;;13.93;;
46339;SDS011;47273;49.274;8.708;2023-02-11T13:15:58;26.88;;;13.43;;
46339;SDS011;47273;49.274;8.708;2023-02-11T13:21:27;27.58;;;15.00;;
46339;SDS011;47273;49.274;8.708;2023-02-11T13:29:09;30.13;;;13.77;;
46339;SDS011;47273;49.274;8.708;2023-02-11T13:31:55;25.23;;;13.90;;
46339;SDS011;47273;49.274;8.708;2023-02-11T13:37:05;25.92;;;13.50;;
46339;SDS011;47273;49.274;8.708;2023-02-11T13:40:18;28.67;;;13.97;;
46339;SDS011;47273;49.274;8.708;2023-02-11T13:45:30;28.00;;;14.23;;
46339;SDS011;47273;49.274;8.708;2023-02-11T13:48:02;26.55;;;12.70;;
46339;SDS011;47273;49.274;8.708;2023-02-11T13:50:35;29.30;;;14.93;;
46339;SDS011;47273;49.274;8.708;2023-02-11T13:53:03;29.23;;;15.07;;
46339;SDS011;47273;49.274;8.708;2023-02-11T13:55:33;26.42;;;13.55;;
46339;SDS011;47273;49.274;8.708;2023-02-11T14:00:41;30.50;;;14.23;;
46339;SDS011;47273;49.274;8.708;2023-02-11T14:14:01;34.55;;;16.42;;
46339;SDS011;47273;49.274;8.708;2023-02-11T14:22:05;21.87;;;12.37;;
46339;SDS011;47273;49.274;8.708;2023-02-11T14:27:29;27.83;;;13.50;;
46339;SDS011;47273;49.274;8.708;2023-02-11T14:30:13;25.10;;;11.57;;
46339;SDS011;47273;49.274;8.708;2023-02-11T14:35:52;25.30;;;11.00;;
46339;SDS011;47273;49.274;8.708;2023-02-11T14:38:34;24.25;;;11.25;;
46339;SDS011;47273;49.274;8.708;2023-02-11T14:43:58;23.50;;;11.75;;
46339;SDS011;47273;49.274;8.708;2023-02-11T14:46:28;25.40;;;12.13;;
46339;SDS011;47273;49.274;8.708;2023-02-11T14:48:57;29.95;;;12.82;;
46339;SDS011;47273;49.274;8.708;2023-02-11T14:51:28;24.25;;;13.07;;
46339;SDS011;47273;49.274;8.708;2023-02-11T14:54:20;28.35;;;13.15;;
46339;SDS011;47273;49.274;8.708;2023-02-11T14:59:55;31.80;;;13.90;;
46339;SDS011;47273;49.274;8.708;2023-02-11T15:02:32;26.40;;;12.02;;
46339;SDS011;47273;49.274;8.708;2023-02-11T15:07:54;32.63;;;14.40;;
46339;SDS011;47273;49.274;8.708;2023-02-11T15:10:27;32.38;;;13.32;;
46339;SDS011;47273;49.274;8.708;2023-02-11T15:12:59;32.05;;;13.35;;
46339;SDS011;47273;49.274;8.708;2023-02-11T15:15:26;31.33;;;14.18;;
46339;SDS011;47273;49.274;8.708;2023-02-11T15:17:55;31.83;;;14.55;;
46339;SDS011;47273;49.274;8.708;2023-02-11T15:20:26;32.10;;;14.90;;
46339;SDS011;47273;49.274;8.708;2023-02-11T15:23:01;29.58;;;13.20;;
46339;SDS011;47273;49.274;8.708;2023-02-11T15:25:29;26.58;;;13.05;;
46339;SDS011;47273;49.274;8.708;2023-02-11T15:27:56;33.35;;;15.52;;
46339;SDS011;47273;49.274;8.708;2023-02-11T15:32:50;30.02;;;13.88;;
46339;SDS011;47273;49.274;8.708;2023-02-11T15:35:22;30.10;;;13.35;;
46339;SDS011;47273;49.274;8.708;2023-02-11T15:37:49;35.50;;;15.18;;
46339;SDS011;47273;49.274;8.708;2023-02-11T15:40:16;28.05;;;14.23;;
46339;SDS011;47273;49.274;8.708;2023-02-11T15:45:29;34.10;;;13.65;;
46339;SDS011;47273;49.274;8.708;2023-02-11T15:48:01;29.30;;;13.43;;
46339;SDS011;47273;49.274;8.708;2023-02-11T15:50:34;34.05;;;12.75;;
46339;SDS011;47273;49.274;8.708;2023-02-11T15:53:03;35.92;;;15.15;;
46339;SDS011;47273;49.274;8.708;2023-02-11T15:55:51;28.30;;;13.43;;
46339;SDS011;47273;49.274;8.708;2023-02-11T15:58:19;32.55;;;13.77;;
46339;SDS011;47273;49.274;8.708;2023-02-11T16:00:48;29.20;;;13.93;;
46339;SDS011;47273;49.274;8.708;2023-02-11T16:03:24;25.23;;;12.30;;
46339;SDS011;47273;49.274;8.708;2023-02-11T16:05:52;32.63;;;14.35;;
46339;SDS011;47273;49.274;8.708;2023-02-11T16:08:25;31.42;;;14.63;;
46339;SDS011;47273;49.274;8.708;2023-02-11T16:11:03;24.67;;;12.02;;
46339;SDS011;47273;49.274;8.708;2023-02-11T16:13:42;31.75;;;13.38;;
46339;SDS011;47273;49.274;8.708;2023-02-11T16:16:19;31.73;;;13.65;;
46339;SDS011;47273;49.274;8.708;2023-02-11T16:18:50;33.45;;;14.05;;
46339;SDS011;47273;49.274;8.708;2023-02-11T16:21:20;26.13;;;12.63;;
46339;SDS011;47273;49.274;8.708;2023-02-11T16:23:55;31.90;;;12.75;;
46339;SDS011;47273;49.274;8.708;2023-02-11T16:26:32;29.98;;;12.85;;
46339;SDS011;47273;49.274;8.708;2023-02-11T16:29:09;29.33;;;12.00;;
46339;SDS011;47273;49.274;8.708;2023-02-11T16:31:47;36.97;;;12.65;;
46339;SDS011;47273;49.274;8.708;2023-02-11T16:34:24;30.17;;;13.05;;
46339;SDS011;47273;49.274;8.708;2023-02-11T16:41:43;30.20;;;11.52;;
46339;SDS011;47273;49.274;8.708;2023-02-11T16:44:08;27.67;;;11.65;;
46339;SDS011;47273;49.274;8.708;2023-02-11T16:46:35;29.63;;;13.02;;
46339;SDS011;47273;49.274;8.708;2023-02-11T16:49:08;24.77;;;11.25;;
46339;SDS011;47273;49.274;8.708;2023-02-11T16:51:39;30.17;;;12.30;;
46339;SDS011;47273;49.274;8.708;2023-02-11T16:54:06;27.30;;;13.10;;
46339;SDS011;47273;49.274;8.708;2023-02-11T16:56:36;28.52;;;12.05;;
46339;SDS011;47273;49.274;8.708;2023-02-11T16:59:02;32.00;;;12.60;;
46339;SDS011;47273;49.274;8.708;2023-02-11T17:01:27;27.98;;;12.65;;
46339;SDS011;47273;49.274;8.708;2023-02-11T17:03:53;28.05;;;13.32;;
46339;SDS011;47273;49.274;8.708;2023-02-11T17:06:19;32.30;;;13.05;;
46339;SDS011;47273;49.274;8.708;2023-02-11T17:08:45;31.00;;;14.75;;
46339;SDS011;47273;49.274;8.708;2023-02-11T17:11:10;31.92;;;12.98;;
46339;SDS011;47273;49.274;8.708;2023-02-11T17:13:40;23.35;;;12.18;;
46339;SDS011;47273;49.274;8.708;2023-02-11T17:16:10;37.67;;;14.40;;
46339;SDS011;47273;49.274;8.708;2023-02-11T17:18:43;33.40;;;15.32;;
46339;SDS011;47273;49.274;8.708;2023-02-11T17:21:09;34.33;;;15.02;;
46339;SDS011;47273;49.274;8.708;2023-02-11T17:23:35;32.92;;;14.60;;
46339;SDS011;47273;49.274;8.708;2023-02-11T17:26:01;37.28;;;15.10;;
46339;SDS011;47273;49.274;8.708;2023-02-11T17:28:27;37.28;;;15.15;;
46339;SDS011;47273;49.274;8.708;2023-02-11T17:30:53;28.33;;;14.48;;
46339;SDS011;47273;49.274;8.708;2023-02-11T17:33:18;32.08;;;15.70;;
46339;SDS011;47273;49.274;8.708;2023-02-11T17:35:44;31.15;;;15.18;;
46339;SDS011;47273;49.274;8.708;2023-02-11T17:38:10;27.23;;;13.27;;
46339;SDS011;47273;49.274;8.708;2023-02-11T17:40:36;32.08;;;14.27;;
46339;SDS011;47273;49.274;8.708;2023-02-11T17:43:01;30.88;;;14.10;;
46339;SDS011;47273;49.274;8.708;2023-02-11T17:45:28;42.20;;;14.80;;
46339;SDS011;47273;49.274;8.708;2023-02-11T17:47:53;33.78;;;14.52;;
46339;SDS011;47273;49.274;8.708;2023-02-11T17:50:19;34.47;;;14.15;;
46339;SDS011;47273;49.274;8.708;2023-02-11T17:52:45;30.13;;;13.65;;
46339;SDS011;47273;49.274;8.708;2023-02-11T17:55:10;28.70;;;13.30;;
46339;SDS011;47273;49.274;8.708;2023-02-11T17:57:36;31.17;;;13.75;;
46339;SDS011;47273;49.274;8.708;2023-02-11T18:00:02;38.72;;;16.55;;
46339;SDS011;47273;49.274;8.708;2023-02-11T18:02:29;41.42;;;17.30;;
46339;SDS011;47273;49.274;8.708;2023-02-11T18:04:55;43.10;;;17.70;;
46339;SDS011;47273;49.274;8.708;2023-02-11T18:07:22;48.08;;;20.13;;
46339;SDS011;47273;49.274;8.708;2023-02-11T18:09:49;41.85;;;16.23;;
46339;SDS011;47273;49.274;8.708;2023-02-11T18:12:15;33.33;;;15.82;;
46339;SDS011;47273;49.274;8.708;2023-02-11T18:14:48;38.67;;;15.57;;
46339;SDS011;47273;49.274;8.708;2023-02-11T18:17:15;39.17;;;17.27;;
46339;SDS011;47273;49.274;8.708;2023-02-11T18:19:41;44.58;;;20.23;;
46339;SDS011;47273;49.274;8.708;2023-02-11T18:22:06;38.03;;;17.30;;
46339;SDS011;47273;49.274;8.708;2023-02-11T18:24:33;44.83;;;17.52;;
46339;SDS011;47273;49.274;8.708;2023-02-11T18:26:59;37.08;;;16.20;;
46339;SDS011;47273;49.274;8.708;2023-02-11T18:29:25;34.17;;;15.88;;
46339;SDS011;47273;49.274;8.708;2023-02-11T18:31:53;29.15;;;14.10;;
46339;SDS011;47273;49.274;8.708;2023-02-11T18:34:20;41.13;;;17.40;;
46339;SDS011;47273;49.274;8.708;2023-02-11T18:36:46;28.33;;;14.75;;
46339;SDS011;47273;49.274;8.708;2023-02-11T18:39:12;42.85;;;18.25;;
46339;SDS011;47273;49.274;8.708;2023-02-11T18:41:38;36.03;;;17.35;;
46339;SDS011;47273;49.274;8.708;2023-02-11T18:44:06;38.75;;;17.50;;
46339;SDS011;47273;49.274;8.708;2023-02-11T18:46:32;37.92;;;16.27;;
46339;SDS011;47273;49.274;8.708;2023-02-11T18:48:58;35.83;;;16.63;;
46339;SDS011;47273;49.274;8.708;2023-02-11T18:51:24;37.78;;;15.98;;
46339;SDS011;47273;49.274;8.708;2023-02-11T18:53:50;41.45;;;15.85;;
46339;SDS011;47273;49.274;8.708;2023-02-11T18:56:17;33.65;;;16.63;;
46339;SDS011;47273;49.274;8.708;2023-02-11T18:58:45;43.97;;;17.58;;
46339;SDS011;47273;49.274;8.708;2023-02-11T19:01:15;33.38;;;16.70;;
46339;SDS011;47273;49.274;8.708;2023-02-11T19:03:43;41.83;;;17.75;;
46339;SDS011;47273;49.274;8.708;2023-02-11T19:06:16;34.60;;;17.20;;
46339;SDS011;47273;49.274;8.708;2023-02-11T19:08:46;37.95;;;16.95;;
46339;SDS011;47273;49.274;8.708;2023-02-11T19:11:11;44.15;;;18.65;;
46339;SDS011;47273;49.274;8.708;2023-02-11T19:13:38;40.25;;;16.27;;
46339;SDS011;47273;49.274;8.708;2023-02-11T19:16:05;37.30;;;17.85;;
46339;SDS011;47273;49.274;8.708;2023-02-11T19:18:32;35.90;;;15.77;;
46339;SDS011;47273;49.274;8.708;2023-02-11T19:20:58;37.72;;;16.38;;
46339;SDS011;47273;49.274;8.708;2023-02-11T19:23:24;36.13;;;17.10;;
46339;SDS011;47273;49.274;8.708;2023-02-11T19:25:49;33.80;;;16.33;;
46339;SDS011;47273;49.274;8.708;2023-02-11T19:28:15;34.63;;;16.35;;
46339;SDS011;47273;49.274;8.708;2023-02-11T19:30:41;35.50;;;17.80;;
46339;SDS011;47273;49.274;8.708;2023-02-11T19:33:07;40.17;;;17.90;;
46339;SDS011;47273;49.274;8.708;2023-02-11T19:35:33;48.47;;;22.80;;
46339;SDS011;47273;49.274;8.708;2023-02-11T19:37:59;70.25;;;27.05;;
46339;SDS011;47273;49.274;8.708;2023-02-11T19:40:26;67.32;;;26.88;;
46339;SDS011;47273;49.274;8.708;2023-02-11T19:42:51;63.83;;;26.70;;
46339;SDS011;47273;49.274;8.708;2023-02-11T19:45:17;66.05;;;28.05;;
46339;SDS011;47273;49.274;8.708;2023-02-11T19:47:42;57.67;;;26.17;;
46339;SDS011;47273;49.274;8.708;2023-02-11T19:50:08;55.92;;;25.60;;
46339;SDS011;47273;49.274;8.708;2023-02-11T19:52:38;61.95;;;25.45;;
46339;SDS011;47273;49.274;8.708;2023-02-11T19:55:04;53.72;;;25.20;;
46339;SDS011;47273;49.274;8.708;2023-02-11T19:57:31;52.45;;;24.70;;
46339;SDS011;47273;49.274;8.708;2023-02-11T19:59:57;56.13;;;24.25;;
46339;SDS011;47273;49.274;8.708;2023-02-11T20:02:22;50.00;;;21.52;;
46339;SDS011;47273;49.274;8.708;2023-02-11T20:04:48;50.45;;;21.50;;
46339;SDS011;47273;49.274;8.708;2023-02-11T20:07:14;44.97;;;21.05;;
46339;SDS011;47273;49.274;8.708;2023-02-11T20:09:40;50.05;;;22.17;;
46339;SDS011;47273;49.274;8.708;2023-02-11T20:12:06;53.25;;;21.23;;
46339;SDS011;47273;49.274;8.708;2023-02-11T20:14:32;41.22;;;17.75;;
46339;SDS011;47273;49.274;8.708;2023-02-11T20:16:58;42.20;;;19.58;;
46339;SDS011;47273;49.274;8.708;2023-02-11T20:19:23;48.17;;;20.88;;
46339;SDS011;47273;49.274;8.708;2023-02-11T20:21:51;46.30;;;18.77;;
46339;SDS011;47273;49.274;8.708;2023-02-11T20:24:19;39.15;;;19.95;;
46339;SDS011;47273;49.274;8.708;2023-02-11T20:26:46;43.65;;;19.77;;
46339;SDS011;47273;49.274;8.708;2023-02-11T20:29:13;41.70;;;18.63;;
46339;SDS011;47273;49.274;8.708;2023-02-11T20:31:39;45.92;;;18.63;;
46339;SDS011;47273;49.274;8.708;2023-02-11T20:34:05;39.67;;;17.70;;
46339;SDS011;47273;49.274;8.708;2023-02-11T20:36:31;43.20;;;18.90;;
46339;SDS011;47273;49.274;8.708;2023-02-11T20:38:59;44.42;;;18.42;;
46339;SDS011;47273;49.274;8.708;2023-02-11T20:41:27;38.42;;;18.38;;
46339;SDS011;47273;49.274;8.708;2023-02-11T20:43:56;35.30;;;17.00;;
46339;SDS011;47273;49.274;8.708;2023-02-11T20:46:25;39.08;;;18.15;;
46339;SDS011;47273;49.274;8.708;2023-02-11T20:48:52;50.33;;;21.55;;
46339;SDS011;47273;49.274;8.708;2023-02-11T20:51:23;58.60;;;24.95;;
46339;SDS011;47273;49.274;8.708;2023-02-11T20:53:51;46.55;;;19.35;;
46339;SDS011;47273;49.274;8.708;2023-02-11T20:56:20;41.65;;;19.27;;
46339;SDS011;47273;49.274;8.708;2023-02-11T20:58:48;46.30;;;19.10;;
46339;SDS011;47273;49.274;8.708;2023-02-11T21:01:24;56.72;;;20.70;;
46339;SDS011;47273;49.274;8.708;2023-02-11T21:03:57;55.17;;;22.95;;
46339;SDS011;47273;49.274;8.708;2023-02-11T21:06:25;42.30;;;20.50;;
46339;SDS011;47273;49.274;8.708;2023-02-11T21:08:54;40.88;;;18.50;;
46339;SDS011;47273;49.274;8.708;2023-02-11T21:11:21;38.15;;;17.27;;
46339;SDS011;47273;49.274;8.708;2023-02-11T21:13:47;39.95;;;18.77;;
46339;SDS011;47273;49.274;8.708;2023-02-11T21:16:14;36.05;;;17.77;;
46339;SDS011;47273;49.274;8.708;2023-02-11T21:18:41;40.13;;;19.08;;
46339;SDS011;47273;49.274;8.708;2023-02-11T21:21:07;41.30;;;17.83;;
46339;SDS011;47273;49.274;8.708;2023-02-11T21:23:33;57.20;;;25.77;;
46339;SDS011;47273;49.274;8.708;2023-02-11T21:25:59;46.03;;;21.88;;